createdAt,value
2019-02-28T00:01:37.917Z,13.75
2019-02-28T00:04:07.129Z,14.35
2019-02-28T00:06:36.350Z,15.60
2019-02-28T00:09:09.448Z,11.00
2019-02-28T00:11:39.538Z,14.87
2019-02-28T00:14:09.348Z,16.17
2019-02-28T00:16:38.593Z,12.45
2019-02-28T00:19:07.877Z,22.60
2019-02-28T00:21:37.364Z,21.52
2019-02-28T00:24:07.977Z,14.90
2019-02-28T00:26:37.222Z,18.17
2019-02-28T00:29:06.454Z,10.65
2019-02-28T00:31:35.702Z,16.50
2019-02-28T00:34:05.615Z,18.60
2019-02-28T00:36:35.014Z,15.68
2019-02-28T00:39:05.189Z,13.03
2019-02-28T00:41:34.450Z,15.48
2019-02-28T00:44:04.489Z,18.50
2019-02-28T00:46:33.838Z,10.82
2019-02-28T00:49:03.052Z,13.48
2019-02-28T00:51:32.306Z,17.32
2019-02-28T00:54:01.517Z,15.35
2019-02-28T00:56:30.832Z,15.80
2019-02-28T00:59:00.461Z,18.07
2019-02-28T01:01:30.521Z,15.60
2019-02-28T01:03:59.674Z,15.32
2019-02-28T01:06:28.810Z,21.07
2019-02-28T01:08:58.025Z,17.27
2019-02-28T01:11:27.296Z,19.52
2019-02-28T01:13:58.047Z,15.72
2019-02-28T01:16:27.465Z,19.52
2019-02-28T01:18:56.631Z,18.48
2019-02-28T01:21:25.900Z,15.23
2019-02-28T01:23:55.074Z,17.48
2019-02-28T01:26:24.236Z,16.10
2019-02-28T01:28:53.510Z,18.57
2019-02-28T01:31:22.759Z,23.10
2019-02-28T01:33:51.948Z,25.72
2019-02-28T01:36:21.180Z,20.20
2019-02-28T01:38:50.419Z,18.82
2019-02-28T01:41:19.650Z,22.42
2019-02-28T01:43:48.956Z,20.65
2019-02-28T01:46:18.210Z,28.05
2019-02-28T01:48:47.478Z,22.77
2019-02-28T01:51:16.722Z,20.32
2019-02-28T01:53:45.884Z,27.98
2019-02-28T01:56:15.089Z,22.30
2019-02-28T01:58:44.260Z,28.40
2019-02-28T02:01:13.645Z,23.87
2019-02-28T02:03:42.908Z,23.35
2019-02-28T02:06:12.290Z,23.02
2019-02-28T02:08:41.540Z,20.72
2019-02-28T02:11:10.780Z,25.90
2019-02-28T02:13:39.956Z,22.22
2019-02-28T02:16:09.092Z,25.68
2019-02-28T02:18:40.261Z,29.95
2019-02-28T02:21:09.200Z,26.40
2019-02-28T02:23:38.440Z,25.55
2019-02-28T02:26:08.456Z,29.32
2019-02-28T02:28:38.548Z,19.92
2019-02-28T02:31:07.805Z,26.75
2019-02-28T02:33:36.962Z,25.12
2019-02-28T02:36:06.132Z,23.30
2019-02-28T02:38:39.767Z,23.65
2019-02-28T02:41:06.285Z,22.62
2019-02-28T02:43:35.455Z,22.42
2019-02-28T02:46:04.619Z,21.35
2019-02-28T02:48:33.811Z,21.65
2019-02-28T02:51:03.009Z,24.63
2019-02-28T02:53:32.260Z,23.65
2019-02-28T02:56:04.083Z,20.12
2019-02-28T02:58:32.533Z,22.00
2019-02-28T03:01:01.681Z,21.52
2019-02-28T03:03:30.849Z,26.60
2019-02-28T03:06:00.069Z,21.42
2019-02-28T03:08:35.715Z,21.37
2019-02-28T03:11:00.189Z,23.70
2019-02-28T03:13:29.502Z,20.52
2019-02-28T03:15:59.523Z,23.67
2019-02-28T03:18:29.681Z,23.57
2019-02-28T03:20:58.887Z,23.38
2019-02-28T03:23:28.064Z,19.25
2019-02-28T03:26:05.743Z,25.10
2019-02-28T03:28:32.015Z,25.32
2019-02-28T03:31:12.192Z,24.18
2019-02-28T03:33:30.477Z,23.52
2019-02-28T03:35:59.640Z,24.43
2019-02-28T03:38:28.781Z,21.85
2019-02-28T03:40:58.076Z,22.48
2019-02-28T03:43:27.278Z,22.50
2019-02-28T03:45:56.559Z,24.00
2019-02-28T03:48:27.050Z,28.52
2019-02-28T03:50:56.683Z,25.70
2019-02-28T03:53:26.016Z,21.40
2019-02-28T03:55:55.241Z,24.95
2019-02-28T03:58:24.415Z,23.65
2019-02-28T04:00:53.737Z,23.00
2019-02-28T04:03:22.956Z,24.15
2019-02-28T04:05:52.136Z,23.73
2019-02-28T04:08:21.378Z,22.73
2019-02-28T04:10:54.762Z,28.20
2019-02-28T04:13:21.422Z,22.10
2019-02-28T04:16:07.660Z,22.67
2019-02-28T04:18:21.566Z,22.00
2019-02-28T04:20:50.734Z,19.87
2019-02-28T04:23:20.058Z,23.05
2019-02-28T04:25:49.287Z,25.77
2019-02-28T04:28:19.054Z,24.65
2019-02-28T04:30:48.449Z,23.00
2019-02-28T04:33:17.778Z,23.92
2019-02-28T04:35:46.922Z,27.87
2019-02-28T04:38:20.527Z,31.80
2019-02-28T04:40:47.079Z,25.80
2019-02-28T04:43:16.273Z,25.20
2019-02-28T04:45:45.916Z,26.70
2019-02-28T04:48:15.155Z,23.02
2019-02-28T04:50:44.468Z,27.55
2019-02-28T04:53:13.705Z,22.17
2019-02-28T04:55:42.901Z,22.30
2019-02-28T04:58:12.112Z,24.18
2019-02-28T05:00:41.319Z,25.37
2019-02-28T05:03:10.526Z,26.80
2019-02-28T05:05:39.839Z,26.68
2019-02-28T05:08:09.140Z,23.73
2019-02-28T05:10:38.468Z,28.20
2019-02-28T05:13:07.727Z,30.88
2019-02-28T05:15:38.642Z,27.10
2019-02-28T05:18:08.727Z,29.92
2019-02-28T05:20:37.991Z,29.50
2019-02-28T05:23:07.291Z,29.00
2019-02-28T05:25:36.555Z,31.00
2019-02-28T05:28:06.771Z,34.13
2019-02-28T05:30:36.848Z,31.15
2019-02-28T05:33:06.701Z,28.85
2019-02-28T05:35:36.692Z,31.52
2019-02-28T05:38:05.867Z,32.80
2019-02-28T05:40:40.611Z,29.20
2019-02-28T05:43:06.189Z,32.75
2019-02-28T05:45:35.494Z,28.60
2019-02-28T05:48:04.933Z,28.87
2019-02-28T05:50:34.269Z,27.75
2019-02-28T05:53:06.197Z,26.45
2019-02-28T05:55:34.468Z,29.00
2019-02-28T05:58:03.752Z,33.90
2019-02-28T06:00:33.484Z,34.48
2019-02-28T06:03:04.059Z,30.95
2019-02-28T06:05:33.284Z,30.77
2019-02-28T06:08:03.569Z,33.15
2019-02-28T06:10:33.506Z,32.73
2019-02-28T06:13:02.857Z,34.85
2019-02-28T06:15:37.146Z,30.80
2019-02-28T06:18:06.874Z,34.98
2019-02-28T06:20:36.115Z,30.50
2019-02-28T06:23:06.371Z,31.35
2019-02-28T06:25:36.460Z,34.60
2019-02-28T06:28:05.738Z,39.00
2019-02-28T06:30:34.999Z,31.80
2019-02-28T06:33:04.174Z,31.75
2019-02-28T06:35:33.551Z,36.53
2019-02-28T06:38:02.744Z,36.28
2019-02-28T06:40:32.996Z,38.17
2019-02-28T06:43:02.981Z,36.95
2019-02-28T06:45:36.651Z,42.73
2019-02-28T06:48:03.170Z,37.90
2019-02-28T06:50:32.425Z,36.53
2019-02-28T06:53:01.897Z,39.88
2019-02-28T06:55:31.235Z,39.88
2019-02-28T06:58:00.445Z,37.55
2019-02-28T07:00:29.636Z,35.90
2019-02-28T07:03:03.227Z,37.88
2019-02-28T07:05:30.382Z,38.85
2019-02-28T07:07:59.634Z,39.65
2019-02-28T07:10:28.946Z,36.70
2019-02-28T07:13:04.033Z,36.28
2019-02-28T07:15:29.574Z,40.92
2019-02-28T07:17:58.854Z,37.10
2019-02-28T07:20:28.180Z,42.95
2019-02-28T07:22:57.478Z,41.20
2019-02-28T07:25:26.762Z,39.85
2019-02-28T07:27:55.985Z,41.85
2019-02-28T07:30:25.287Z,42.10
2019-02-28T07:32:54.445Z,37.83
2019-02-28T07:35:23.716Z,43.28
2019-02-28T07:37:54.479Z,40.67
2019-02-28T07:40:24.071Z,38.55
2019-02-28T07:42:53.316Z,38.90
2019-02-28T07:45:22.467Z,38.67
2019-02-28T07:47:52.856Z,36.77
2019-02-28T07:50:25.229Z,39.08
2019-02-28T07:52:55.023Z,41.90
2019-02-28T07:55:27.274Z,45.58
2019-02-28T07:57:56.576Z,40.50
2019-02-28T08:00:27.038Z,40.98
2019-02-28T08:02:56.286Z,37.83
2019-02-28T08:05:29.710Z,37.45
2019-02-28T08:07:56.478Z,40.75
2019-02-28T08:10:25.823Z,41.75
2019-02-28T08:12:55.153Z,40.60
2019-02-28T08:15:24.583Z,35.98
2019-02-28T08:17:53.829Z,34.23
2019-02-28T08:20:22.983Z,40.35
2019-02-28T08:22:52.267Z,40.17
2019-02-28T08:25:21.453Z,35.85
2019-02-28T08:27:50.761Z,34.67
2019-02-28T08:30:21.521Z,32.70
2019-02-28T08:32:50.814Z,38.87
2019-02-28T08:35:20.145Z,37.60
2019-02-28T08:37:55.656Z,36.80
2019-02-28T08:40:21.011Z,33.90
2019-02-28T08:42:50.370Z,35.37
2019-02-28T08:45:19.605Z,36.10
2019-02-28T08:47:48.954Z,36.27
2019-02-28T08:50:21.468Z,38.87
2019-02-28T08:52:51.541Z,34.80
2019-02-28T08:55:28.174Z,41.80
2019-02-28T08:57:54.762Z,35.63
2019-02-28T09:00:23.235Z,41.40
2019-02-28T09:02:53.630Z,40.97
2019-02-28T09:05:26.113Z,37.50
2019-02-28T09:07:53.999Z,38.80
2019-02-28T09:10:23.227Z,40.17
2019-02-28T09:12:52.546Z,39.40
2019-02-28T09:15:22.159Z,40.37
2019-02-28T09:17:51.525Z,40.17
2019-02-28T09:20:20.777Z,43.77
2019-02-28T09:22:49.940Z,47.17
2019-02-28T09:25:22.127Z,40.23
2019-02-28T09:27:50.258Z,37.33
2019-02-28T09:30:31.544Z,38.57
2019-02-28T09:33:00.696Z,42.40
2019-02-28T09:35:29.925Z,40.60
2019-02-28T09:38:00.281Z,42.20
2019-02-28T09:40:30.586Z,43.20
2019-02-28T09:42:59.922Z,45.03
2019-02-28T09:45:30.029Z,43.97
2019-02-28T09:48:01.820Z,45.30
2019-02-28T09:50:30.329Z,44.70
2019-02-28T09:52:59.540Z,46.37
2019-02-28T09:55:34.339Z,41.80
2019-02-28T09:57:59.837Z,45.53
2019-02-28T10:00:29.302Z,42.33
2019-02-28T10:03:06.852Z,38.97
2019-02-28T10:05:38.911Z,41.83
2019-02-28T10:08:07.587Z,49.00
2019-02-28T10:10:37.145Z,51.20
2019-02-28T10:13:06.351Z,52.13
2019-02-28T10:15:38.622Z,46.90
2019-02-28T10:18:06.693Z,51.83
2019-02-28T10:20:35.894Z,53.63
2019-02-28T10:23:05.034Z,48.97
2019-02-28T10:25:34.303Z,49.97
2019-02-28T10:28:04.415Z,50.37
2019-02-28T10:30:33.908Z,53.70
2019-02-28T10:33:03.121Z,49.50
2019-02-28T10:35:33.539Z,49.10
2019-02-28T10:38:03.664Z,49.10
2019-02-28T10:40:33.012Z,46.43
2019-02-28T10:43:04.091Z,47.37
2019-02-28T10:45:33.633Z,55.73
2019-02-28T10:48:04.022Z,54.37
2019-02-28T10:50:33.694Z,55.87
2019-02-28T10:53:05.431Z,63.80
2019-02-28T10:55:34.895Z,57.17
2019-02-28T10:58:04.653Z,65.73
2019-02-28T11:00:35.999Z,69.87
2019-02-28T11:03:06.119Z,62.17
2019-02-28T11:05:35.797Z,56.70
2019-02-28T11:08:06.073Z,56.83
2019-02-28T11:10:37.899Z,47.37
2019-02-28T11:13:10.670Z,48.60
2019-02-28T11:15:40.092Z,53.57
2019-02-28T11:18:10.004Z,55.93
2019-02-28T11:20:41.599Z,56.27
2019-02-28T11:23:15.058Z,53.53
2019-02-28T11:25:43.061Z,42.13
2019-02-28T11:28:15.241Z,45.90
2019-02-28T11:30:45.647Z,45.70
2019-02-28T11:33:15.985Z,47.03
2019-02-28T11:35:45.393Z,51.40
2019-02-28T11:38:21.513Z,45.10
2019-02-28T11:40:57.096Z,41.03
2019-02-28T11:43:20.589Z,40.67
2019-02-28T11:45:52.564Z,52.23
2019-02-28T11:48:22.456Z,49.63
2019-02-28T11:50:52.139Z,45.47
2019-02-28T11:53:21.508Z,43.63
2019-02-28T11:55:53.259Z,46.60
2019-02-28T11:58:25.105Z,51.27
2019-02-28T12:00:54.431Z,46.70
2019-02-28T12:03:23.860Z,44.00
2019-02-28T12:05:53.297Z,51.03
2019-02-28T12:08:44.814Z,45.83
2019-02-28T12:11:12.769Z,42.10
2019-02-28T12:13:42.337Z,47.97
2019-02-28T12:16:11.859Z,47.50
2019-02-28T12:18:41.551Z,48.63
2019-02-28T12:21:11.457Z,42.00
2019-02-28T12:23:41.021Z,39.50
2019-02-28T12:26:11.000Z,45.83
2019-02-28T12:28:40.432Z,42.93
2019-02-28T12:31:10.177Z,41.93
2019-02-28T12:33:39.603Z,40.60
2019-02-28T12:36:14.362Z,47.73
2019-02-28T12:38:42.766Z,48.40
2019-02-28T12:41:12.094Z,45.30
2019-02-28T12:43:41.541Z,48.90
2019-02-28T12:46:10.936Z,56.03
2019-02-28T12:48:41.094Z,51.33
2019-02-28T12:51:10.342Z,46.27
2019-02-28T12:53:39.774Z,53.67
2019-02-28T12:56:11.286Z,63.00
2019-02-28T12:58:41.667Z,70.77
2019-02-28T13:01:12.375Z,71.87
2019-02-28T13:03:41.586Z,76.40
2019-02-28T13:06:11.431Z,94.20
2019-02-28T13:08:41.702Z,101.17
2019-02-28T13:11:11.950Z,89.07
2019-02-28T13:13:41.363Z,99.60
2019-02-28T13:16:10.666Z,98.00
2019-02-28T13:18:43.634Z,108.90
2019-02-28T13:21:12.303Z,110.17
2019-02-28T13:23:41.929Z,101.87
2019-02-28T13:26:11.474Z,109.53
2019-02-28T13:28:40.810Z,106.13
2019-02-28T13:31:10.098Z,93.50
2019-02-28T13:33:39.502Z,91.57
2019-02-28T13:36:09.586Z,84.63
2019-02-28T13:38:38.812Z,85.27
2019-02-28T13:41:07.991Z,87.43
2019-02-28T13:43:37.258Z,91.30
2019-02-28T13:46:06.514Z,83.47
2019-02-28T13:48:35.868Z,80.50
2019-02-28T13:51:08.317Z,71.73
2019-02-28T13:53:37.316Z,72.73
2019-02-28T13:56:07.000Z,67.47
2019-02-28T13:58:36.684Z,64.33
2019-02-28T14:01:06.952Z,62.50
2019-02-28T14:03:36.668Z,74.37
2019-02-28T14:06:07.260Z,66.20
2019-02-28T14:08:37.846Z,60.67
2019-02-28T14:11:10.273Z,63.70
2019-02-28T14:13:38.858Z,61.30
2019-02-28T14:16:08.350Z,52.08
2019-02-28T14:18:37.699Z,58.20
2019-02-28T14:21:07.180Z,53.10
2019-02-28T14:23:36.626Z,47.87
2019-02-28T14:26:06.510Z,57.80
2019-02-28T14:28:36.506Z,53.73
2019-02-28T14:31:06.693Z,61.60
2019-02-28T14:33:36.008Z,69.97
2019-02-28T14:36:07.367Z,58.00
2019-02-28T14:38:36.359Z,59.50
2019-02-28T14:41:05.798Z,56.02
2019-02-28T14:43:34.990Z,58.93
2019-02-28T14:46:05.192Z,53.67
2019-02-28T14:48:36.642Z,60.73
2019-02-28T14:51:05.580Z,51.33
2019-02-28T14:53:34.967Z,50.77
2019-02-28T14:56:04.430Z,49.27
2019-02-28T14:58:35.285Z,49.73
2019-02-28T15:01:04.537Z,41.40
2019-02-28T15:03:35.915Z,47.10
2019-02-28T15:06:04.946Z,43.83
2019-02-28T15:08:34.365Z,44.93
2019-02-28T15:11:06.444Z,41.03
2019-02-28T15:13:34.865Z,35.83
2019-02-28T15:16:04.167Z,36.57
2019-02-28T15:18:33.493Z,39.30
2019-02-28T15:21:04.555Z,27.33
2019-02-28T15:23:35.085Z,26.23
2019-02-28T15:26:04.585Z,33.17
2019-02-28T15:28:33.989Z,32.77
2019-02-28T15:31:05.706Z,26.67
2019-02-28T15:33:34.431Z,21.97
2019-02-28T15:36:03.892Z,26.23
2019-02-28T15:38:33.176Z,29.17
2019-02-28T15:41:02.825Z,27.93
2019-02-28T15:43:31.954Z,26.57
2019-02-28T15:46:01.224Z,27.90
2019-02-28T15:48:31.392Z,26.03
2019-02-28T15:51:03.391Z,18.97
2019-02-28T15:53:32.523Z,29.10
2019-02-28T15:56:01.848Z,20.77
2019-02-28T15:58:31.178Z,26.97
2019-02-28T16:01:00.429Z,21.33
2019-02-28T16:03:29.712Z,22.80
2019-02-28T16:05:58.938Z,21.57
2019-02-28T16:08:28.513Z,20.43
2019-02-28T16:10:57.991Z,21.60
2019-02-28T16:13:27.292Z,21.30
2019-02-28T16:16:01.326Z,17.93
2019-02-28T16:18:30.534Z,19.80
2019-02-28T16:20:59.806Z,30.00
2019-02-28T16:23:31.062Z,28.40
2019-02-28T16:26:02.506Z,26.00
2019-02-28T16:28:31.716Z,26.80
2019-02-28T16:31:03.308Z,21.70
2019-02-28T16:33:32.136Z,23.27
2019-02-28T16:36:01.447Z,19.87
2019-02-28T16:38:30.630Z,16.70
2019-02-28T16:41:00.794Z,20.10
2019-02-28T16:43:30.741Z,16.70
2019-02-28T16:46:00.039Z,21.67
2019-02-28T16:48:29.289Z,21.73
2019-02-28T16:50:58.507Z,20.70
2019-02-28T16:53:27.883Z,20.53
2019-02-28T16:55:57.139Z,21.23
2019-02-28T16:58:26.288Z,21.50
2019-02-28T17:00:55.500Z,14.00
2019-02-28T17:03:24.845Z,17.50
2019-02-28T17:05:54.218Z,21.37
2019-02-28T17:08:24.122Z,14.20
2019-02-28T17:10:53.410Z,15.83
2019-02-28T17:13:47.503Z,15.37
2019-02-28T17:16:37.063Z,16.57
2019-02-28T17:19:08.504Z,16.57
2019-02-28T17:21:38.004Z,19.70
2019-02-28T17:24:08.692Z,28.00
2019-02-28T17:27:06.346Z,15.40
2019-02-28T17:29:57.641Z,20.93
2019-02-28T17:32:28.016Z,25.30
2019-02-28T17:34:58.993Z,20.20
2019-02-28T17:37:28.886Z,16.30
2019-02-28T17:39:58.109Z,20.10
2019-02-28T17:42:27.334Z,18.00
2019-02-28T17:45:16.185Z,25.03
2019-02-28T17:48:52.617Z,21.10
2019-02-28T17:51:46.998Z,16.00
2019-02-28T17:55:09.810Z,17.70
2019-02-28T17:58:12.847Z,17.67
2019-02-28T18:01:06.512Z,17.67
2019-02-28T18:04:12.326Z,20.90
2019-02-28T18:07:36.721Z,18.90
2019-02-28T18:10:46.414Z,15.93
2019-02-28T18:13:59.390Z,17.37
2019-02-28T18:17:04.609Z,22.20
2019-02-28T18:19:45.753Z,15.57
2019-02-28T18:22:53.332Z,15.60
2019-02-28T18:25:51.676Z,21.23
2019-02-28T18:28:54.833Z,18.80
2019-02-28T18:31:23.783Z,17.27
2019-02-28T18:34:20.574Z,17.90
2019-02-28T18:36:50.746Z,22.43
2019-02-28T18:39:20.404Z,26.03
2019-02-28T18:41:50.799Z,23.63
2019-02-28T18:44:20.162Z,18.00
2019-02-28T18:46:49.487Z,16.67
2019-02-28T18:49:21.374Z,24.60
2019-02-28T18:51:50.787Z,22.03
2019-02-28T18:54:20.636Z,21.13
2019-02-28T18:56:50.532Z,27.73
2019-02-28T18:59:23.292Z,34.43
2019-02-28T19:01:52.790Z,20.40
2019-02-28T19:04:22.145Z,26.33
2019-02-28T19:06:51.427Z,45.50
2019-02-28T19:09:24.648Z,18.17
2019-02-28T19:11:55.698Z,28.87
2019-02-28T19:14:25.025Z,32.80
2019-02-28T19:16:54.468Z,23.60
2019-02-28T19:19:23.890Z,29.40
2019-02-28T19:21:53.512Z,25.27
2019-02-28T19:24:25.628Z,22.67
2019-02-28T19:26:55.220Z,25.23
2019-02-28T19:29:24.685Z,17.57
2019-02-28T19:31:58.226Z,15.50
2019-02-28T19:34:27.734Z,13.37
2019-02-28T19:36:57.188Z,18.27
2019-02-28T19:39:29.881Z,23.32
2019-02-28T19:42:00.313Z,42.67
2019-02-28T19:44:29.620Z,16.50
2019-02-28T19:46:59.753Z,17.70
2019-02-28T19:49:29.144Z,16.63
2019-02-28T19:52:01.300Z,25.75
2019-02-28T19:54:30.645Z,27.30
2019-02-28T19:57:00.104Z,22.70
2019-02-28T19:59:29.459Z,23.85
2019-02-28T20:01:58.850Z,21.17
2019-02-28T20:04:28.254Z,24.60
2019-02-28T20:06:57.485Z,23.23
2019-02-28T20:09:27.194Z,22.80
2019-02-28T20:11:56.663Z,17.90
2019-02-28T20:14:25.982Z,22.67
2019-02-28T20:16:55.400Z,28.07
2019-02-28T20:19:24.856Z,26.00
2019-02-28T20:21:54.270Z,28.83
2019-02-28T20:24:23.903Z,23.00
2019-02-28T20:26:53.159Z,22.20
2019-02-28T20:29:22.376Z,36.53
2019-02-28T20:31:51.748Z,26.20
2019-02-28T20:34:23.884Z,28.87
2019-02-28T20:36:53.454Z,49.98
2019-02-28T20:39:23.020Z,60.93
2019-02-28T20:41:52.305Z,30.03
2019-02-28T20:44:21.613Z,27.87
2019-02-28T20:46:50.965Z,25.87
2019-02-28T20:49:20.225Z,31.27
2019-02-28T20:51:55.065Z,25.40
2019-02-28T20:54:21.005Z,24.03
2019-02-28T20:56:50.374Z,22.02
2019-02-28T20:59:19.641Z,26.77
2019-02-28T21:01:49.217Z,22.07
2019-02-28T21:04:19.152Z,40.45
2019-02-28T21:06:48.486Z,26.15
2019-02-28T21:09:19.477Z,35.33
2019-02-28T21:11:48.761Z,39.00
2019-02-28T21:14:18.264Z,23.42
2019-02-28T21:16:47.974Z,21.42
2019-02-28T21:19:17.670Z,24.57
2019-02-28T21:21:48.014Z,19.12
2019-02-28T21:24:17.251Z,19.82
2019-02-28T21:26:46.542Z,16.42
2019-02-28T21:29:21.518Z,19.73
2019-02-28T21:31:50.989Z,15.70
2019-02-28T21:34:20.482Z,14.40
2019-02-28T21:36:52.084Z,15.55
2019-02-28T21:39:22.168Z,16.53
2019-02-28T21:41:52.205Z,19.32
2019-02-28T21:44:21.704Z,18.98
2019-02-28T21:46:53.636Z,18.87
2019-02-28T21:49:23.214Z,16.87
2019-02-28T21:51:52.540Z,19.55
2019-02-28T21:54:21.805Z,20.43
2019-02-28T21:56:51.073Z,22.30
2019-02-28T21:59:20.351Z,25.50
2019-02-28T22:01:49.574Z,24.12
2019-02-28T22:04:18.862Z,19.25
2019-02-28T22:06:48.066Z,22.45
2019-02-28T22:09:17.297Z,21.80
2019-02-28T22:11:49.617Z,28.67
2019-02-28T22:14:18.883Z,25.52
2019-02-28T22:16:48.164Z,20.85
2019-02-28T22:19:17.417Z,19.92
2019-02-28T22:21:46.603Z,24.00
2019-02-28T22:24:15.854Z,19.98
2019-02-28T22:26:45.108Z,20.60
2019-02-28T22:29:14.298Z,24.30
2019-02-28T22:31:59.596Z,23.02
2019-02-28T22:34:57.550Z,20.95
2019-02-28T22:37:26.899Z,25.02
2019-02-28T22:39:56.159Z,20.08
2019-02-28T22:42:26.240Z,25.77
2019-02-28T22:44:55.545Z,20.92
2019-02-28T22:47:24.888Z,21.62
2019-02-28T22:49:54.735Z,15.28
2019-02-28T22:52:24.914Z,18.12
2019-02-28T22:54:54.238Z,17.17
2019-02-28T22:57:23.549Z,18.45
2019-02-28T22:59:52.832Z,18.40
2019-02-28T23:02:22.507Z,24.52
2019-02-28T23:04:51.801Z,16.60
2019-02-28T23:07:21.072Z,19.10
2019-02-28T23:09:50.685Z,16.17
2019-02-28T23:12:19.961Z,11.75
2019-02-28T23:14:49.273Z,19.17
2019-02-28T23:17:18.737Z,15.90
2019-02-28T23:19:48.243Z,14.23
2019-02-28T23:22:17.543Z,11.20
2019-02-28T23:24:46.925Z,14.18
2019-02-28T23:27:22.553Z,10.08
2019-02-28T23:30:21.700Z,14.03
2019-02-28T23:33:02.981Z,10.40
2019-02-28T23:35:40.846Z,8.30
2019-02-28T23:38:10.161Z,10.65
2019-02-28T23:40:39.317Z,11.63
2019-02-28T23:43:08.730Z,10.43
2019-02-28T23:45:37.982Z,6.95
2019-02-28T23:48:07.239Z,12.03
2019-02-28T23:50:36.579Z,10.53
2019-02-28T23:53:05.814Z,8.68
2019-02-28T23:55:35.138Z,10.48
2019-02-28T23:58:04.567Z,11.35
